createdAt,value
2023-06-09T00:01:47.980Z,40.19
2023-06-09T00:04:14.832Z,40.24
2023-06-09T00:06:41.425Z,40.47
2023-06-09T00:09:08.364Z,40.33
2023-06-09T00:11:34.964Z,40.39
2023-06-09T00:14:01.664Z,40.56
2023-06-09T00:16:29.810Z,40.47
2023-06-09T00:18:58.852Z,40.25
2023-06-09T00:21:26.680Z,40.24
2023-06-09T00:23:57.278Z,40.62
2023-06-09T00:26:24.029Z,40.54
2023-06-09T00:28:50.907Z,40.72
2023-06-09T00:31:17.484Z,40.42
2023-06-09T00:33:44.084Z,40.72
2023-06-09T00:36:10.620Z,40.43
2023-06-09T00:38:37.372Z,40.76
2023-06-09T00:41:04.000Z,40.85
2023-06-09T00:43:30.690Z,40.77
2023-06-09T00:45:57.536Z,40.87
2023-06-09T00:48:24.102Z,40.80
2023-06-09T00:50:50.678Z,40.53
2023-06-09T00:53:17.932Z,40.90
2023-06-09T00:55:44.724Z,40.91
2023-06-09T00:58:11.614Z,40.50
2023-06-09T01:00:40.313Z,40.79
2023-06-09T01:03:07.366Z,40.63
2023-06-09T01:05:35.366Z,40.83
2023-06-09T01:08:17.026Z,40.75
2023-06-09T01:10:47.235Z,40.68
2023-06-09T01:13:27.993Z,40.68
2023-06-09T01:16:01.014Z,40.75
2023-06-09T01:18:29.067Z,41.05
2023-06-09T01:21:04.077Z,40.98
2023-06-09T01:23:39.065Z,40.81
2023-06-09T01:26:05.745Z,41.00
2023-06-09T01:28:33.125Z,41.05
2023-06-09T01:30:59.940Z,40.94
2023-06-09T01:33:26.971Z,41.23
2023-06-09T01:35:54.356Z,41.21
2023-06-09T01:38:21.689Z,41.07
2023-06-09T01:40:48.371Z,41.13
2023-06-09T01:43:15.085Z,41.29
2023-06-09T01:45:41.728Z,41.15
2023-06-09T01:48:20.643Z,41.50
2023-06-09T01:51:01.090Z,41.14
2023-06-09T01:53:29.968Z,41.15
2023-06-09T01:55:59.858Z,41.36
2023-06-09T01:58:41.642Z,41.54
2023-06-09T02:01:08.901Z,41.32
2023-06-09T02:03:38.879Z,41.53
2023-06-09T02:06:06.319Z,41.40
2023-06-09T02:08:33.461Z,41.53
2023-06-09T02:11:00.140Z,41.45
2023-06-09T02:13:26.717Z,41.25
2023-06-09T02:15:53.257Z,41.45
2023-06-09T02:18:22.873Z,41.74
2023-06-09T02:20:49.872Z,41.38
2023-06-09T02:23:16.936Z,41.58
2023-06-09T02:25:43.578Z,41.70
2023-06-09T02:28:10.301Z,41.83
2023-06-09T02:30:36.997Z,41.54
2023-06-09T02:33:03.823Z,41.84
2023-06-09T02:35:31.138Z,41.79
2023-06-09T02:37:59.110Z,41.82
2023-06-09T02:40:29.092Z,41.85
2023-06-09T02:42:55.704Z,41.87
2023-06-09T02:45:22.298Z,41.83
2023-06-09T02:47:49.118Z,41.79
2023-06-09T02:50:15.821Z,41.97
2023-06-09T02:52:43.412Z,41.78
2023-06-09T02:55:10.088Z,41.90
2023-06-09T02:57:36.700Z,41.98
2023-06-09T03:00:05.565Z,41.95
2023-06-09T03:02:34.011Z,41.87
2023-06-09T03:05:00.638Z,42.08
2023-06-09T03:07:27.241Z,42.16
2023-06-09T03:09:53.794Z,42.08
2023-06-09T03:12:20.517Z,41.98
2023-06-09T03:14:47.246Z,41.98
2023-06-09T03:17:14.532Z,41.77
2023-06-09T03:19:41.454Z,41.92
2023-06-09T03:22:08.073Z,41.97
2023-06-09T03:24:35.140Z,42.22
2023-06-09T03:27:01.885Z,42.05
2023-06-09T03:29:30.209Z,41.98
2023-06-09T03:31:56.773Z,42.08
2023-06-09T03:34:24.154Z,42.09
2023-06-09T03:36:50.693Z,42.12
2023-06-09T03:39:18.230Z,42.12
2023-06-09T03:41:44.822Z,41.95
2023-06-09T03:44:11.392Z,42.28
2023-06-09T03:46:38.062Z,42.31
2023-06-09T03:49:04.595Z,41.97
2023-06-09T03:51:31.090Z,42.15
2023-06-09T03:53:57.694Z,42.19
2023-06-09T03:56:24.247Z,42.20
2023-06-09T03:58:50.786Z,42.39
2023-06-09T04:01:19.040Z,42.36
2023-06-09T04:06:12.243Z,42.12
2023-06-09T04:08:38.760Z,42.43
2023-06-09T04:11:05.284Z,42.26
2023-06-09T04:13:31.834Z,42.24
2023-06-09T04:15:58.491Z,42.17
2023-06-09T04:18:25.002Z,42.48
2023-06-09T04:20:51.928Z,42.33
2023-06-09T04:23:18.478Z,42.39
2023-06-09T04:25:45.060Z,42.40
2023-06-09T04:28:11.700Z,42.39
2023-06-09T04:30:39.288Z,42.67
2023-06-09T04:33:06.334Z,42.61
2023-06-09T04:35:32.944Z,42.51
2023-06-09T04:38:03.838Z,42.76
2023-06-09T04:40:31.217Z,42.65
2023-06-09T04:42:58.773Z,42.74
2023-06-09T04:45:34.951Z,42.51
2023-06-09T04:48:04.451Z,42.42
2023-06-09T04:50:33.933Z,42.77
2023-06-09T04:53:05.298Z,42.42
2023-06-09T04:55:32.189Z,42.46
2023-06-09T04:57:58.739Z,42.40
2023-06-09T05:00:27.952Z,42.44
2023-06-09T05:02:58.622Z,42.76
2023-06-09T05:05:25.840Z,42.75
2023-06-09T05:07:52.617Z,42.78
2023-06-09T05:10:19.165Z,42.37
2023-06-09T05:12:45.733Z,42.82
2023-06-09T05:15:12.463Z,42.65
2023-06-09T05:17:39.223Z,42.75
2023-06-09T05:20:09.466Z,42.60
2023-06-09T05:22:37.012Z,42.73
2023-06-09T05:25:07.232Z,42.94
2023-06-09T05:27:33.793Z,42.91
2023-06-09T05:30:00.480Z,42.96
2023-06-09T05:32:27.066Z,42.60
2023-06-09T05:34:54.267Z,42.69
2023-06-09T05:37:20.862Z,42.59
2023-06-09T05:39:47.396Z,42.97
2023-06-09T05:42:14.399Z,42.98
2023-06-09T05:44:40.920Z,42.65
2023-06-09T05:47:07.908Z,42.78
2023-06-09T05:49:35.758Z,42.54
2023-06-09T05:52:03.056Z,42.84
2023-06-09T05:54:29.550Z,42.65
2023-06-09T05:56:56.427Z,42.99
2023-06-09T05:59:24.353Z,43.10
2023-06-09T06:01:51.536Z,43.08
2023-06-09T06:04:18.408Z,42.78
2023-06-09T06:06:45.146Z,42.86
2023-06-09T06:09:11.887Z,42.61
2023-06-09T06:11:38.535Z,42.54
2023-06-09T06:14:05.033Z,42.59
2023-06-09T06:16:31.615Z,42.87
2023-06-09T06:18:58.290Z,42.84
2023-06-09T06:21:24.822Z,42.66
2023-06-09T06:23:51.333Z,42.98
2023-06-09T06:26:17.907Z,42.66
2023-06-09T06:28:44.590Z,42.77
2023-06-09T06:31:11.210Z,42.67
2023-06-09T06:33:38.140Z,43.02
2023-06-09T06:36:04.788Z,42.90
2023-06-09T06:38:31.377Z,42.74
2023-06-09T06:40:57.893Z,42.90
2023-06-09T06:43:24.394Z,43.07
2023-06-09T06:45:50.923Z,42.96
2023-06-09T06:48:17.449Z,43.25
2023-06-09T06:50:44.271Z,43.21
2023-06-09T06:53:10.912Z,43.22
2023-06-09T06:55:38.399Z,43.04
2023-06-09T06:58:05.151Z,42.71
2023-06-09T07:00:31.800Z,42.75
2023-06-09T07:02:58.439Z,42.96
2023-06-09T07:05:25.051Z,43.28
2023-06-09T07:07:51.565Z,43.03
2023-06-09T07:10:18.149Z,42.99
2023-06-09T07:12:44.740Z,43.23
2023-06-09T07:15:11.630Z,43.45
2023-06-09T07:17:38.364Z,43.25
2023-06-09T07:20:05.726Z,43.24
2023-06-09T07:22:35.411Z,43.18
2023-06-09T07:25:02.258Z,43.24
2023-06-09T07:27:28.809Z,43.11
2023-06-09T07:29:55.324Z,43.11
2023-06-09T07:32:22.159Z,42.95
2023-06-09T07:34:48.827Z,42.91
2023-06-09T07:37:15.620Z,42.66
2023-06-09T07:39:42.337Z,42.75
2023-06-09T07:42:08.900Z,42.65
2023-06-09T07:44:35.398Z,42.96
2023-06-09T07:47:02.949Z,42.78
2023-06-09T07:49:29.494Z,42.77
2023-06-09T07:51:57.074Z,42.96
2023-06-09T07:54:24.351Z,42.83
2023-06-09T07:56:51.602Z,42.84
2023-06-09T07:59:18.515Z,42.66
2023-06-09T08:01:45.194Z,42.61
2023-06-09T08:04:12.069Z,42.60
2023-06-09T08:06:39.076Z,42.48
2023-06-09T08:09:06.092Z,42.70
2023-06-09T08:11:32.786Z,42.65
2023-06-09T08:13:59.460Z,42.11
2023-06-09T08:16:26.077Z,42.40
2023-06-09T08:18:52.739Z,42.25
2023-06-09T08:21:19.347Z,41.45
2023-06-09T08:23:46.392Z,41.46
2023-06-09T08:26:13.189Z,41.58
2023-06-09T08:28:39.898Z,41.34
2023-06-09T08:31:07.228Z,41.40
2023-06-09T08:33:34.673Z,41.40
2023-06-09T08:36:04.167Z,41.08
2023-06-09T08:38:34.802Z,40.53
2023-06-09T08:41:09.043Z,40.55
2023-06-09T08:43:36.022Z,40.60
2023-06-09T08:46:04.720Z,40.41
2023-06-09T08:48:32.124Z,40.09
2023-06-09T08:50:59.148Z,40.45
2023-06-09T08:53:26.352Z,40.37
2023-06-09T08:55:59.711Z,40.42
2023-06-09T08:58:27.305Z,39.87
2023-06-09T09:00:53.949Z,39.96
2023-06-09T09:03:21.735Z,39.67
2023-06-09T09:05:48.317Z,39.82
2023-06-09T09:08:17.905Z,39.63
2023-06-09T09:10:46.824Z,39.62
2023-06-09T09:13:13.720Z,39.32
2023-06-09T09:15:51.117Z,39.21
2023-06-09T09:18:18.512Z,38.90
2023-06-09T09:20:45.632Z,39.11
2023-06-09T09:23:12.395Z,39.11
2023-06-09T09:25:39.406Z,39.05
2023-06-09T09:28:09.773Z,39.35
2023-06-09T09:30:50.168Z,39.37
2023-06-09T09:33:19.831Z,39.12
2023-06-09T09:35:47.905Z,38.98
2023-06-09T09:38:15.824Z,38.82
2023-06-09T09:40:44.031Z,38.39
2023-06-09T09:43:11.570Z,38.34
2023-06-09T09:45:40.428Z,38.34
2023-06-09T09:48:11.249Z,38.30
2023-06-09T09:50:38.255Z,38.33
2023-06-09T09:53:05.509Z,38.39
2023-06-09T09:55:32.882Z,38.06
2023-06-09T09:58:01.267Z,38.02
2023-06-09T10:00:28.930Z,37.91
2023-06-09T10:03:00.547Z,38.13
2023-06-09T10:05:30.314Z,37.90
2023-06-09T10:07:57.180Z,37.65
2023-06-09T10:10:24.121Z,37.48
2023-06-09T10:12:52.500Z,37.21
2023-06-09T10:15:20.464Z,37.04
2023-06-09T10:17:47.814Z,37.68
2023-06-09T10:20:14.483Z,36.68
2023-06-09T10:22:41.658Z,36.76
2023-06-09T10:25:09.615Z,36.84
2023-06-09T10:27:36.731Z,36.85
2023-06-09T10:30:04.728Z,36.63
2023-06-09T10:32:33.126Z,36.45
2023-06-09T10:35:00.460Z,36.47
2023-06-09T10:37:30.984Z,36.27
2023-06-09T10:40:02.386Z,35.82
2023-06-09T10:42:39.853Z,36.10
2023-06-09T10:45:09.433Z,36.09
2023-06-09T10:47:42.918Z,35.74
2023-06-09T10:50:22.241Z,35.58
2023-06-09T10:52:58.800Z,36.10
2023-06-09T10:55:28.536Z,35.77
2023-06-09T10:57:56.266Z,35.72
2023-06-09T11:00:23.345Z,35.33
2023-06-09T11:03:09.848Z,34.92
2023-06-09T11:05:43.178Z,35.27
2023-06-09T11:08:09.733Z,34.72
2023-06-09T11:10:39.553Z,34.97
2023-06-09T11:13:44.760Z,34.97
2023-06-09T11:16:11.440Z,35.74
2023-06-09T11:18:40.110Z,35.53
2023-06-09T11:21:14.504Z,35.82
2023-06-09T11:24:02.148Z,35.77
2023-06-09T11:26:29.414Z,36.05
2023-06-09T11:28:55.996Z,35.71
2023-06-09T11:31:22.693Z,35.67
2023-06-09T11:33:50.429Z,35.57
2023-06-09T11:36:28.542Z,35.37
2023-06-09T11:38:59.716Z,35.21
2023-06-09T11:41:26.924Z,35.23
2023-06-09T11:43:54.478Z,35.19
2023-06-09T11:46:21.418Z,34.57
2023-06-09T11:48:57.463Z,34.59
2023-06-09T11:51:24.066Z,34.50
2023-06-09T11:53:51.295Z,34.50
2023-06-09T11:56:17.891Z,34.35
2023-06-09T11:58:44.426Z,34.47
2023-06-09T12:01:11.226Z,34.36
2023-06-09T12:03:39.456Z,34.22
2023-06-09T12:06:06.254Z,34.66
2023-06-09T12:08:33.724Z,34.53
2023-06-09T12:11:03.273Z,34.53
2023-06-09T12:13:30.223Z,34.23
2023-06-09T12:15:56.870Z,34.32
2023-06-09T12:18:23.471Z,34.49
2023-06-09T12:20:51.641Z,34.68
2023-06-09T12:23:18.800Z,34.75
2023-06-09T12:25:48.185Z,34.06
2023-06-09T12:28:16.605Z,34.23
2023-06-09T12:30:46.553Z,33.79
2023-06-09T12:33:14.648Z,34.22
2023-06-09T12:35:42.037Z,34.07
2023-06-09T12:38:12.129Z,34.65
2023-06-09T12:40:45.643Z,34.23
2023-06-09T12:43:12.552Z,33.95
2023-06-09T12:45:41.417Z,33.88
2023-06-09T12:48:08.345Z,33.88
2023-06-09T12:50:35.695Z,33.68
2023-06-09T12:53:02.532Z,32.90
2023-06-09T12:55:29.212Z,32.92
2023-06-09T12:57:55.816Z,33.05
2023-06-09T13:00:23.449Z,33.34
2023-06-09T13:02:51.064Z,32.89
2023-06-09T13:05:18.097Z,32.70
2023-06-09T13:07:45.043Z,32.94
2023-06-09T13:10:11.843Z,33.05
2023-06-09T13:12:38.539Z,32.86
2023-06-09T13:15:05.298Z,33.33
2023-06-09T13:17:31.896Z,33.10
2023-06-09T13:19:58.485Z,33.21
2023-06-09T13:22:25.079Z,33.07
2023-06-09T13:24:51.671Z,33.25
2023-06-09T13:27:18.241Z,33.01
2023-06-09T13:29:44.780Z,32.47
2023-06-09T13:32:11.316Z,32.41
2023-06-09T13:34:38.937Z,32.27
2023-06-09T13:37:05.772Z,32.39
2023-06-09T13:39:32.336Z,32.38
2023-06-09T13:41:58.918Z,32.27
2023-06-09T13:44:25.640Z,32.22
2023-06-09T13:46:52.208Z,32.46
2023-06-09T13:49:18.940Z,32.26
2023-06-09T13:51:45.618Z,32.70
2023-06-09T13:54:12.183Z,33.06
2023-06-09T13:56:38.990Z,32.78
2023-06-09T13:59:07.442Z,33.23
2023-06-09T14:01:35.219Z,33.34
2023-06-09T14:04:02.014Z,32.85
2023-06-09T14:06:28.795Z,32.92
2023-06-09T14:08:55.416Z,33.12
2023-06-09T14:11:23.049Z,33.19
2023-06-09T14:13:49.907Z,32.75
2023-06-09T14:16:16.527Z,32.90
2023-06-09T14:18:43.158Z,33.05
2023-06-09T14:21:09.704Z,33.10
2023-06-09T14:23:37.222Z,33.34
2023-06-09T14:26:03.917Z,33.31
2023-06-09T14:28:30.512Z,32.92
2023-06-09T14:30:57.188Z,33.12
2023-06-09T14:33:23.805Z,33.01
2023-06-09T14:35:50.378Z,33.16
2023-06-09T14:38:16.929Z,33.12
2023-06-09T14:40:43.483Z,33.27
2023-06-09T14:43:11.155Z,32.77
2023-06-09T14:45:38.029Z,32.66
2023-06-09T14:48:07.854Z,32.75
2023-06-09T14:50:39.144Z,32.71
2023-06-09T14:53:06.266Z,32.45
2023-06-09T14:55:36.733Z,32.65
2023-06-09T14:58:03.746Z,32.48
2023-06-09T15:00:31.573Z,32.23
2023-06-09T15:02:59.587Z,32.47
2023-06-09T15:05:27.305Z,32.39
2023-06-09T15:07:56.088Z,32.10
2023-06-09T15:10:23.563Z,31.94
2023-06-09T15:12:50.798Z,32.00
2023-06-09T15:15:20.149Z,31.92
2023-06-09T15:17:46.974Z,31.76
2023-06-09T15:20:15.656Z,31.80
2023-06-09T15:22:42.331Z,31.83
2023-06-09T15:25:10.033Z,31.75
2023-06-09T15:27:39.562Z,31.38
2023-06-09T15:30:07.108Z,31.56
2023-06-09T15:32:33.790Z,31.75
2023-06-09T15:35:00.389Z,31.75
2023-06-09T15:37:27.063Z,31.56
2023-06-09T15:39:53.578Z,31.94
2023-06-09T15:42:20.180Z,31.49
2023-06-09T15:44:46.808Z,31.44
2023-06-09T15:47:13.925Z,31.67
2023-06-09T15:49:40.741Z,31.62
2023-06-09T15:52:07.535Z,31.84
2023-06-09T15:54:34.148Z,31.62
2023-06-09T15:57:03.465Z,31.35
2023-06-09T15:59:30.620Z,31.45
2023-06-09T16:01:57.652Z,31.72
2023-06-09T16:04:24.525Z,31.76
2023-06-09T16:06:51.842Z,31.67
2023-06-09T16:09:18.722Z,31.76
2023-06-09T16:11:45.297Z,31.80
2023-06-09T16:14:11.861Z,31.62
2023-06-09T16:16:38.453Z,31.08
2023-06-09T16:19:05.022Z,31.30
2023-06-09T16:21:32.258Z,31.17
2023-06-09T16:23:58.911Z,31.38
2023-06-09T16:26:28.476Z,31.47
2023-06-09T16:28:55.286Z,31.48
2023-06-09T16:31:22.077Z,31.55
2023-06-09T16:33:48.878Z,31.68
2023-06-09T16:36:15.604Z,31.51
2023-06-09T16:38:43.688Z,31.66
2023-06-09T16:41:10.685Z,31.45
2023-06-09T16:43:40.061Z,31.44
2023-06-09T16:46:06.999Z,31.16
2023-06-09T16:48:36.761Z,31.32
2023-06-09T16:51:04.185Z,31.27
2023-06-09T16:53:31.009Z,31.42
2023-06-09T16:55:57.792Z,31.59
2023-06-09T16:58:24.614Z,31.73
2023-06-09T17:00:51.180Z,31.58
2023-06-09T17:03:17.993Z,31.57
2023-06-09T17:05:44.877Z,31.26
2023-06-09T17:08:11.596Z,31.24
2023-06-09T17:10:38.299Z,31.04
2023-06-09T17:13:06.294Z,31.40
2023-06-09T17:15:33.334Z,31.20
2023-06-09T17:18:00.095Z,31.43
2023-06-09T17:20:26.798Z,31.33
2023-06-09T17:22:53.412Z,31.38
2023-06-09T17:25:20.261Z,31.35
2023-06-09T17:27:47.213Z,31.38
2023-06-09T17:30:15.191Z,31.17
2023-06-09T17:32:42.651Z,31.19
2023-06-09T17:35:09.663Z,31.02
2023-06-09T17:37:38.472Z,30.90
2023-06-09T17:40:08.696Z,30.99
2023-06-09T17:42:35.602Z,30.72
2023-06-09T17:45:02.551Z,31.08
2023-06-09T17:47:29.673Z,30.57
2023-06-09T17:49:56.260Z,30.55
2023-06-09T17:52:22.864Z,30.45
2023-06-09T17:54:49.584Z,30.26
2023-06-09T17:57:16.298Z,30.34
2023-06-09T17:59:42.866Z,30.10
2023-06-09T18:02:09.525Z,30.14
2023-06-09T18:04:36.400Z,30.34
2023-06-09T18:07:06.250Z,30.08
2023-06-09T18:09:33.093Z,30.16
2023-06-09T18:11:59.984Z,29.90
2023-06-09T18:14:26.739Z,30.13
2023-06-09T18:16:53.836Z,29.83
2023-06-09T18:19:20.376Z,29.71
2023-06-09T18:21:47.508Z,30.03
2023-06-09T18:24:14.290Z,29.53
2023-06-09T18:26:41.554Z,29.81
2023-06-09T18:29:09.693Z,29.42
2023-06-09T18:31:36.436Z,29.41
2023-06-09T18:34:03.122Z,29.83
2023-06-09T18:36:32.369Z,29.49
2023-06-09T18:38:59.592Z,29.40
2023-06-09T18:41:26.488Z,29.58
2023-06-09T18:43:55.938Z,29.56
2023-06-09T18:46:22.589Z,29.62
2023-06-09T18:49:00.370Z,29.54
2023-06-09T18:51:28.101Z,29.63
2023-06-09T18:53:55.041Z,29.26
2023-06-09T18:56:21.906Z,29.53
2023-06-09T18:58:48.562Z,29.20
2023-06-09T19:01:15.643Z,29.26
2023-06-09T19:03:42.626Z,29.09
2023-06-09T19:06:09.423Z,28.98
2023-06-09T19:08:36.010Z,29.27
2023-06-09T19:11:02.893Z,29.02
2023-06-09T19:13:29.548Z,29.24
2023-06-09T19:15:56.420Z,29.13
2023-06-09T19:18:23.088Z,29.32
2023-06-09T19:20:50.826Z,29.11
2023-06-09T19:23:17.602Z,29.06
2023-06-09T19:25:44.301Z,29.10
2023-06-09T19:28:10.924Z,29.23
2023-06-09T19:30:37.678Z,29.51
2023-06-09T19:33:04.624Z,29.43
2023-06-09T19:35:31.358Z,29.24
2023-06-09T19:38:00.165Z,29.41
2023-06-09T19:40:27.304Z,29.71
2023-06-09T19:42:53.931Z,29.52
2023-06-09T19:45:20.756Z,29.65
2023-06-09T19:47:48.081Z,29.75
2023-06-09T19:50:14.830Z,29.94
2023-06-09T19:52:41.700Z,29.66
2023-06-09T19:55:08.943Z,29.86
2023-06-09T19:57:36.129Z,29.96
2023-06-09T20:00:05.977Z,30.16
2023-06-09T20:02:33.837Z,30.19
2023-06-09T20:05:00.559Z,30.19
2023-06-09T20:07:27.238Z,30.34
2023-06-09T20:09:53.788Z,30.06
2023-06-09T20:12:20.397Z,30.50
2023-06-09T20:14:47.708Z,30.23
2023-06-09T20:17:14.414Z,30.38
2023-06-09T20:19:41.330Z,30.67
2023-06-09T20:22:09.643Z,30.34
2023-06-09T20:24:36.323Z,30.40
2023-06-09T20:27:02.924Z,30.86
2023-06-09T20:29:30.058Z,30.43
2023-06-09T20:31:56.722Z,30.96
2023-06-09T20:34:23.355Z,30.64
2023-06-09T20:36:49.984Z,30.82
2023-06-09T20:39:16.752Z,31.06
2023-06-09T20:41:43.407Z,31.22
2023-06-09T20:44:10.151Z,31.15
2023-06-09T20:46:36.995Z,31.10
2023-06-09T20:49:03.827Z,30.97
2023-06-09T20:51:30.442Z,31.03
2023-06-09T20:53:57.477Z,31.42
2023-06-09T20:56:24.220Z,31.43
2023-06-09T20:58:51.320Z,31.68
2023-06-09T21:01:18.329Z,31.80
2023-06-09T21:03:47.656Z,31.72
2023-06-09T21:06:20.728Z,31.66
2023-06-09T21:08:47.944Z,32.05
2023-06-09T21:11:14.879Z,32.08
2023-06-09T21:13:41.858Z,31.75
2023-06-09T21:16:08.570Z,32.09
2023-06-09T21:18:35.335Z,32.02
2023-06-09T21:21:02.106Z,31.94
2023-06-09T21:23:28.636Z,31.79
2023-06-09T21:25:55.293Z,32.04
2023-06-09T21:28:21.901Z,32.41
2023-06-09T21:30:48.623Z,32.82
2023-06-09T22:38:56.413Z,34.22
2023-06-09T22:41:23.249Z,34.25
2023-06-09T22:43:49.832Z,33.89
2023-06-09T22:46:16.860Z,34.26
2023-06-09T22:48:43.574Z,34.11
2023-06-09T22:51:10.321Z,34.26
2023-06-09T22:53:38.303Z,33.90
2023-06-09T22:56:05.256Z,34.08
2023-06-09T22:58:31.883Z,34.15
2023-06-09T23:00:58.476Z,34.25
2023-06-09T23:03:25.074Z,34.10
2023-06-09T23:05:56.466Z,34.33
2023-06-09T23:08:25.116Z,34.35
2023-06-09T23:10:51.817Z,34.09
2023-06-09T23:13:18.410Z,34.16
2023-06-09T23:15:45.032Z,34.10
2023-06-09T23:18:11.680Z,34.21
2023-06-09T23:20:39.552Z,34.40
2023-06-09T23:23:06.413Z,34.40
2023-06-09T23:25:34.654Z,34.40
2023-06-09T23:28:01.235Z,34.07
2023-06-09T23:30:30.368Z,34.32
2023-06-09T23:32:57.285Z,34.56
2023-06-09T23:35:25.064Z,34.53
2023-06-09T23:37:53.926Z,34.24
2023-06-09T23:40:20.687Z,34.27
2023-06-09T23:42:47.241Z,34.25
2023-06-09T23:45:14.542Z,34.28
2023-06-09T23:47:41.179Z,34.69
2023-06-09T23:50:08.178Z,34.33
2023-06-09T23:52:34.820Z,34.32
2023-06-09T23:55:05.388Z,34.37
2023-06-09T23:57:32.189Z,34.72
2023-06-09T23:59:58.672Z,34.38
